Time;durP1;ratioP1;P1;durP2;ratioP2;P2;SDS_P1;SDS_P2;PMS_P1;PMS_P2;Temp;Humidity;BMP_temperature;BMP_pressure;BME280_temperature;BME280_humidity;BME280_pressure;Samples;Min_cycle;Max_cycle;Signal;HPM_P1;HPM_P2
2022/07/15 00:01:51;;;;;;;6.00;1.37;;;14.50;64.30;;;;;;5008561;28;20506;-52
2022/07/15 00:04:18;;;;;;;2.40;1.00;;;14.50;59.80;;;;;;5007866;28;20926;-52
2022/07/15 00:06:44;;;;;;;2.83;1.30;;;14.40;58.60;;;;;;5010846;28;20495;-50
2022/07/15 00:09:12;;;;;;;1.70;1.20;;;14.40;58.90;;;;;;5011589;28;20499;-52
2022/07/15 00:11:38;;;;;;;3.23;1.00;;;14.40;59.30;;;;;;5010324;28;20992;-51
2022/07/15 00:14:05;;;;;;;4.67;1.60;;;14.40;57.50;;;;;;5010173;28;20518;-51
2022/07/15 00:16:31;;;;;;;3.17;1.17;;;14.30;56.70;;;;;;5006004;28;20236;-51
2022/07/15 00:18:58;;;;;;;5.97;1.23;;;14.30;53.40;;;;;;5010195;28;20565;-52
2022/07/15 00:21:25;;;;;;;9.27;1.80;;;14.40;52.70;;;;;;5010816;28;20829;-52
2022/07/15 00:23:52;;;;;;;1.80;1.00;;;14.30;54.40;;;;;;5011096;28;21009;-51
2022/07/15 00:26:20;;;;;;;1.53;0.87;;;14.30;52.30;;;;;;5010797;28;20464;-53
2022/07/15 00:28:46;;;;;;;2.30;1.00;;;14.30;52.80;;;;;;5010990;28;20456;-51
2022/07/15 00:31:13;;;;;;;3.13;1.27;;;14.20;47.90;;;;;;5009158;28;20494;-51
2022/07/15 00:33:39;;;;;;;4.00;1.00;;;14.20;43.90;;;;;;5008988;28;20511;-52
2022/07/15 00:36:06;;;;;;;2.20;1.13;;;14.10;46.20;;;;;;5009604;28;20498;-52
2022/07/15 00:38:33;;;;;;;1.23;0.83;;;14.10;45.20;;;;;;5011241;28;20594;-51
2022/07/15 00:40:59;;;;;;;2.50;0.97;;;14.10;44.30;;;;;;5008596;28;20459;-52
2022/07/15 00:43:27;;;;;;;2.77;1.27;;;14.10;46.00;;;;;;5015633;28;20573;-52
2022/07/15 00:45:54;;;;;;;3.73;1.10;;;14.10;41.70;;;;;;5004528;28;20495;-53
2022/07/15 00:48:21;;;;;;;3.23;1.17;;;14.10;45.40;;;;;;5010463;28;20491;-52
2022/07/15 00:50:48;;;;;;;2.23;1.10;;;14.00;41.80;;;;;;5010989;28;20478;-50
2022/07/15 00:53:18;;;;;;;2.30;1.10;;;14.00;42.00;;;;;;5010626;28;20530;-52
2022/07/15 00:55:46;;;;;;;1.17;0.93;;;13.90;41.00;;;;;;5008944;28;20463;-54
2022/07/15 00:58:17;;;;;;;3.60;0.77;;;13.90;41.00;;;;;;5011158;28;20910;-50
2022/07/15 01:00:47;;;;;;;6.10;1.27;;;13.80;41.00;;;;;;5007078;28;20491;-52
2022/07/15 01:03:15;;;;;;;3.50;1.03;;;13.80;36.70;;;;;;5009897;28;20526;-52
2022/07/15 01:05:42;;;;;;;3.03;1.00;;;13.70;37.20;;;;;;5008006;28;20542;-51
2022/07/15 01:08:10;;;;;;;2.73;1.00;;;13.70;32.50;;;;;;5015666;28;20494;-52
2022/07/15 01:10:37;;;;;;;4.10;1.10;;;13.70;34.10;;;;;;5013305;28;20506;-51
2022/07/15 01:13:04;;;;;;;2.30;0.97;;;13.70;32.70;;;;;;5008562;28;21031;-53
2022/07/15 01:15:32;;;;;;;7.90;1.40;;;13.60;30.10;;;;;;5008225;28;20831;-51
2022/07/15 01:18:01;;;;;;;3.80;1.43;;;13.60;28.00;;;;;;5013115;28;20459;-51
2022/07/15 01:20:28;;;;;;;3.43;1.00;;;13.50;29.70;;;;;;5008969;28;20460;-52
2022/07/15 01:22:58;;;;;;;3.13;1.47;;;13.60;28.10;;;;;;5002224;28;20540;-51
2022/07/15 01:25:25;;;;;;;3.23;1.03;;;13.50;25.70;;;;;;5009724;28;20489;-51
2022/07/15 01:27:52;;;;;;;3.63;1.30;;;13.50;75.20;;;;;;5010402;28;21026;-51
2022/07/15 01:30:19;;;;;;;2.20;1.10;;;13.50;20.70;;;;;;5010844;28;20490;-52
2022/07/15 01:32:45;;;;;;;3.60;1.20;;;13.50;94.90;;;;;;5009040;28;20463;-51
2022/07/15 01:35:12;;;;;;;2.70;1.30;;;13.50;89.10;;;;;;5005928;28;20519;-52
2022/07/15 01:37:38;;;;;;;3.50;1.60;;;13.50;97.80;;;;;;5008046;28;20556;-51
2022/07/15 01:40:08;;;;;;;1.63;1.10;;;13.50;99.90;;;;;;5008476;28;20463;-52
2022/07/15 01:42:34;;;;;;;4.27;1.17;;;13.40;99.90;;;;;;5007141;28;20473;-51
2022/07/15 01:45:01;;;;;;;2.70;1.30;;;13.40;99.90;;;;;;5009799;28;20526;-51
2022/07/15 01:47:28;;;;;;;5.90;1.30;;;13.40;99.90;;;;;;4997998;28;20543;-50
2022/07/15 01:49:54;;;;;;;6.67;1.60;;;13.40;99.90;;;;;;5008079;28;20487;-50
2022/07/15 01:52:21;;;;;;;4.07;1.23;;;13.30;99.90;;;;;;5005734;28;20483;-51
2022/07/15 01:54:47;;;;;;;5.60;1.60;;;13.30;99.90;;;;;;5007342;28;20519;-53
2022/07/15 01:57:15;;;;;;;3.97;1.40;;;13.30;99.90;;;;;;5006358;28;20487;-52
2022/07/15 01:59:42;;;;;;;4.80;1.50;;;13.30;99.90;;;;;;5009236;28;20514;-52
2022/07/15 02:02:08;;;;;;;2.40;1.47;;;13.30;99.90;;;;;;5004494;28;20483;-52
2022/07/15 02:04:36;;;;;;;2.43;1.10;;;13.30;99.90;;;;;;5007929;28;20987;-52
2022/07/15 02:07:03;;;;;;;2.60;1.27;;;13.20;99.90;;;;;;5009040;28;20459;-51
2022/07/15 02:09:31;;;;;;;4.50;1.40;;;13.20;99.90;;;;;;5008685;28;20510;-52
2022/07/15 02:11:57;;;;;;;5.13;1.17;;;13.20;99.90;;;;;;5007391;28;20552;-54
2022/07/15 02:14:25;;;;;;;3.37;1.57;;;13.20;99.90;;;;;;5016862;28;20507;-52
2022/07/15 02:16:52;;;;;;;2.77;1.27;;;13.10;99.90;;;;;;5009182;28;20460;-53
2022/07/15 02:19:19;;;;;;;2.73;1.50;;;13.10;99.90;;;;;;5008962;28;21260;-52
2022/07/15 02:21:46;;;;;;;9.47;1.60;;;13.10;99.90;;;;;;5006891;28;20463;-52
2022/07/15 02:24:13;;;;;;;6.30;1.43;;;13.00;99.90;;;;;;5008609;28;20487;-51
2022/07/15 02:26:40;;;;;;;9.83;1.77;;;13.00;99.90;;;;;;5004720;28;20464;-52
2022/07/15 02:29:07;;;;;;;9.50;1.50;;;13.00;99.90;;;;;;5004021;28;20898;-52
2022/07/15 02:31:36;;;;;;;4.67;1.00;;;13.00;99.90;;;;;;5006723;28;20491;-52
2022/07/15 02:34:02;;;;;;;4.30;1.40;;;12.90;99.90;;;;;;5006573;28;20472;-56
2022/07/15 02:36:29;;;;;;;5.17;1.80;;;12.90;99.90;;;;;;5008772;28;20506;-51
2022/07/15 02:38:56;;;;;;;4.53;1.77;;;12.90;99.90;;;;;;5010998;28;20498;-53
2022/07/15 02:41:23;;;;;;;8.50;1.80;;;12.90;99.90;;;;;;5012446;28;20945;-51
2022/07/15 02:43:49;;;;;;;6.30;1.43;;;12.80;99.90;;;;;;5010354;28;20482;-51
2022/07/15 02:46:16;;;;;;;7.63;1.80;;;12.80;99.90;;;;;;5011329;28;20976;-53
2022/07/15 02:48:44;;;;;;;4.43;1.30;;;12.80;99.90;;;;;;5013518;28;20461;-52
2022/07/15 02:51:11;;;;;;;5.80;1.50;;;12.80;99.90;;;;;;5010926;28;20985;-52
2022/07/15 02:53:39;;;;;;;6.77;1.60;;;12.80;99.90;;;;;;5009695;28;21576;-52
2022/07/15 02:56:06;;;;;;;4.80;1.50;;;12.70;99.90;;;;;;5012029;28;21028;-52
2022/07/15 02:58:33;;;;;;;5.47;2.17;;;12.70;99.90;;;;;;5012843;28;20499;-52
2022/07/15 03:01:01;;;;;;;5.80;2.20;;;12.70;99.90;;;;;;5009482;28;20495;-52
2022/07/15 03:03:28;;;;;;;4.33;1.87;;;12.70;99.90;;;;;;5009493;28;20515;-52
2022/07/15 03:05:57;;;;;;;5.10;1.20;;;12.70;99.90;;;;;;5011719;28;20460;-52
2022/07/15 03:08:24;;;;;;;9.23;2.10;;;12.70;99.90;;;;;;5011544;28;20843;-53
2022/07/15 03:10:50;;;;;;;3.43;1.50;;;12.70;99.90;;;;;;5011805;28;20964;-53
2022/07/15 03:13:17;;;;;;;4.60;1.60;;;12.70;99.90;;;;;;5010192;28;20834;-52
2022/07/15 03:15:43;;;;;;;4.93;1.93;;;12.70;99.90;;;;;;5011437;28;20549;-52
2022/07/15 03:18:10;;;;;;;3.07;1.70;;;12.60;99.90;;;;;;5007793;28;20506;-52
2022/07/15 03:20:36;;;;;;;6.40;2.20;;;12.60;99.90;;;;;;5011784;28;20495;-51
2022/07/15 03:23:04;;;;;;;5.73;2.00;;;12.60;99.90;;;;;;5009248;28;20869;-52
2022/07/15 03:25:31;;;;;;;6.03;1.73;;;12.60;99.90;;;;;;5011038;28;20937;-52
2022/07/15 03:27:58;;;;;;;8.77;2.30;;;12.60;99.90;;;;;;5010730;28;20515;-52
2022/07/15 03:30:24;;;;;;;3.17;1.30;;;12.60;99.90;;;;;;5008600;28;20958;-52
2022/07/15 03:32:51;;;;;;;2.50;1.23;;;12.60;99.90;;;;;;5007974;28;20473;-52
2022/07/15 03:35:18;;;;;;;3.20;1.60;;;12.60;99.90;;;;;;5009876;28;20508;-52
2022/07/15 03:37:45;;;;;;;10.07;1.70;;;12.60;99.90;;;;;;5011940;28;20496;-52
2022/07/15 03:40:13;;;;;;;7.97;1.70;;;12.60;99.90;;;;;;5010587;28;20499;-52
2022/07/15 03:42:40;;;;;;;4.60;2.37;;;12.60;99.90;;;;;;5009591;28;20466;-52
2022/07/15 03:45:08;;;;;;;3.20;1.70;;;12.60;99.90;;;;;;5011992;28;20523;-52
2022/07/15 03:47:34;;;;;;;4.57;1.63;;;12.60;99.90;;;;;;5011621;28;20467;-52
2022/07/15 03:50:01;;;;;;;5.00;1.30;;;12.70;99.90;;;;;;5010241;28;20846;-53
2022/07/15 03:52:28;;;;;;;6.93;1.87;;;12.70;99.90;;;;;;5009702;28;20466;-54
2022/07/15 03:54:54;;;;;;;9.20;2.57;;;12.80;99.90;;;;;;5008686;28;20483;-54
2022/07/15 03:57:24;;;;;;;7.30;2.23;;;12.90;99.90;;;;;;5010890;28;20552;-53
2022/07/15 03:59:51;;;;;;;6.93;1.80;;;13.00;99.90;;;;;;5010352;28;20462;-53
2022/07/15 04:02:18;;;;;;;12.80;1.63;;;13.00;99.90;;;;;;5011219;28;20479;-53
2022/07/15 04:04:44;;;;;;;5.87;1.57;;;13.00;99.90;;;;;;5012214;28;20523;-53
2022/07/15 04:07:11;;;;;;;3.90;1.93;;;13.10;99.90;;;;;;5008249;28;20491;-54
2022/07/15 04:09:37;;;;;;;3.10;1.77;;;13.10;99.90;;;;;;5010304;28;20464;-54
2022/07/15 04:12:05;;;;;;;7.77;1.60;;;13.20;99.90;;;;;;5010901;28;20495;-54
2022/07/15 04:14:33;;;;;;;5.60;1.50;;;13.20;99.90;;;;;;5009091;28;20618;-54
2022/07/15 04:16:59;;;;;;;5.20;1.57;;;13.20;99.90;;;;;;5009446;28;20889;-53
2022/07/15 04:19:26;;;;;;;4.40;1.60;;;13.20;99.90;;;;;;5010772;28;20506;-53
2022/07/15 04:21:52;;;;;;;9.93;1.70;;;13.30;99.90;;;;;;5010955;28;20491;-53
2022/07/15 04:24:19;;;;;;;7.30;2.13;;;13.30;99.90;;;;;;5010644;28;20541;-53
2022/07/15 04:26:45;;;;;;;13.43;1.77;;;13.30;99.90;;;;;;5008418;28;20537;-53
2022/07/15 04:29:12;;;;;;;5.70;1.97;;;13.30;99.90;;;;;;5011132;28;20494;-53
2022/07/15 04:31:40;;;;;;;7.63;1.77;;;13.30;99.90;;;;;;5010156;28;21020;-53
2022/07/15 04:34:07;;;;;;;7.50;2.20;;;13.30;99.90;;;;;;5009743;28;20518;-53
2022/07/15 04:36:33;;;;;;;11.57;2.27;;;13.40;99.90;;;;;;5010934;28;20507;-53
2022/07/15 04:39:00;;;;;;;8.10;1.83;;;13.40;99.90;;;;;;5009043;28;20514;-53
2022/07/15 04:41:26;;;;;;;7.13;2.13;;;13.40;99.90;;;;;;5009493;28;20503;-51
2022/07/15 04:43:53;;;;;;;4.10;2.53;;;13.40;99.90;;;;;;5005648;28;20519;-53
2022/07/15 04:46:19;;;;;;;9.33;2.30;;;13.40;99.90;;;;;;5009493;28;20491;-54
2022/07/15 04:51:32;;;;;;;14.70;2.10;;;13.50;99.90;;;;;;5009052;28;20529;-54
2022/07/15 04:53:59;;;;;;;7.60;1.90;;;13.50;99.90;;;;;;5011410;28;20463;-53
2022/07/15 04:56:25;;;;;;;8.50;1.90;;;13.50;99.90;;;;;;5011415;28;20573;-53
2022/07/15 04:58:52;;;;;;;4.70;2.13;;;13.50;99.90;;;;;;5009681;28;20492;-53
2022/07/15 05:01:18;;;;;;;4.27;1.60;;;13.50;99.90;;;;;;5006211;28;21351;-54
2022/07/15 05:03:46;;;;;;;5.03;1.70;;;13.60;99.90;;;;;;5009008;28;20577;-53
2022/07/15 05:06:13;;;;;;;2.97;1.57;;;13.60;99.90;;;;;;5007749;28;20495;-53
2022/07/15 05:08:39;;;;;;;9.23;2.27;;;13.60;99.90;;;;;;5008257;28;20506;-53
2022/07/15 05:11:06;;;;;;;7.33;1.90;;;13.60;99.90;;;;;;5007597;28;21000;-53
2022/07/15 05:13:32;;;;;;;7.70;2.30;;;13.70;99.90;;;;;;5008694;28;20487;-53
2022/07/15 05:15:59;;;;;;;6.40;2.40;;;13.80;99.90;;;;;;5006508;28;20491;-53
2022/07/15 05:18:26;;;;;;;7.47;1.57;;;13.80;99.90;;;;;;5009281;28;20503;-52
2022/07/15 05:20:54;;;;;;;3.60;1.80;;;13.90;99.90;;;;;;5009230;28;20475;-54
2022/07/15 05:23:20;;;;;;;9.00;1.80;;;13.90;99.90;;;;;;5009735;28;20511;-53
2022/07/15 05:25:47;;;;;;;9.13;1.80;;;14.00;99.90;;;;;;5006460;28;20540;-53
2022/07/15 05:28:14;;;;;;;3.90;1.80;;;14.00;99.90;;;;;;5011118;28;20565;-53
2022/07/15 05:30:40;;;;;;;3.53;1.60;;;14.00;99.90;;;;;;5009476;28;20463;-54
2022/07/15 05:33:07;;;;;;;6.17;1.93;;;14.00;99.90;;;;;;5008223;28;20468;-53
2022/07/15 05:35:33;;;;;;;7.30;2.13;;;14.00;99.90;;;;;;5009414;28;20892;-54
2022/07/15 05:38:01;;;;;;;8.40;1.67;;;14.00;99.90;;;;;;5008683;28;20503;-53
2022/07/15 05:40:29;;;;;;;9.37;1.87;;;14.00;99.90;;;;;;5009335;28;20513;-52
2022/07/15 05:42:55;;;;;;;15.23;2.13;;;14.00;99.90;;;;;;5007932;28;20455;-53
2022/07/15 05:45:22;;;;;;;7.23;2.80;;;14.00;99.90;;;;;;5006151;28;20514;-53
2022/07/15 05:47:49;;;;;;;10.33;2.07;;;14.10;99.90;;;;;;5008116;28;20499;-52
2022/07/15 05:50:16;;;;;;;3.43;1.73;;;14.20;99.90;;;;;;5010863;28;20467;-53
2022/07/15 05:52:43;;;;;;;3.50;1.70;;;14.20;99.90;;;;;;5008388;28;20482;-53
2022/07/15 05:55:12;;;;;;;4.90;1.57;;;14.30;99.90;;;;;;5005205;28;20507;-53
2022/07/15 05:57:38;;;;;;;2.30;1.40;;;14.30;99.90;;;;;;5009596;28;20491;-53
2022/07/15 06:00:07;;;;;;;6.40;1.50;;;14.40;20.80;;;;;;5005885;28;20585;-53
2022/07/15 06:02:33;;;;;;;6.10;2.17;;;14.40;20.90;;;;;;5006352;28;20467;-54
2022/07/15 06:05:00;;;;;;;4.13;1.77;;;14.50;20.10;;;;;;5014894;28;20488;-53
2022/07/15 06:07:26;;;;;;;4.00;1.40;;;14.60;25.60;;;;;;5009639;28;20541;-53
2022/07/15 06:09:53;;;;;;;4.63;1.30;;;14.60;29.90;;;;;;5009411;28;20462;-53
2022/07/15 06:12:21;;;;;;;8.70;1.53;;;14.60;38.40;;;;;;5006046;28;20479;-54
2022/07/15 06:14:47;;;;;;;5.47;1.90;;;14.70;34.00;;;;;;5012750;28;21009;-53
2022/07/15 06:17:14;;;;;;;4.33;1.43;;;14.70;32.10;;;;;;5011150;28;20491;-53
2022/07/15 06:19:41;;;;;;;4.50;1.47;;;14.90;32.10;;;;;;5013957;28;20566;-53
2022/07/15 06:22:08;;;;;;;3.60;1.43;;;14.90;40.90;;;;;;5023641;28;20506;-52
2022/07/15 06:24:34;;;;;;;7.40;1.57;;;15.00;43.90;;;;;;5012668;28;20494;-53
2022/07/15 06:27:01;;;;;;;7.67;1.50;;;15.10;42.20;;;;;;5011052;28;20498;-53
2022/07/15 06:29:29;;;;;;;13.70;2.63;;;15.20;42.90;;;;;;5012929;28;21020;-53
2022/07/15 06:31:56;;;;;;;7.03;1.60;;;15.20;48.30;;;;;;5005469;28;20487;-53
2022/07/15 06:34:22;;;;;;;3.27;1.50;;;15.30;56.70;;;;;;5013407;28;20507;-52
2022/07/15 06:36:50;;;;;;;15.63;2.30;;;15.30;51.80;;;;;;5011355;28;20487;-52
2022/07/15 06:39:16;;;;;;;6.40;1.70;;;15.30;55.90;;;;;;5011728;28;20827;-52
2022/07/15 06:41:43;;;;;;;3.80;1.30;;;15.40;51.10;;;;;;5004949;28;20460;-53
2022/07/15 06:44:11;;;;;;;6.60;1.20;;;15.40;55.60;;;;;;5007924;28;20515;-53
2022/07/15 06:46:38;;;;;;;4.63;1.43;;;15.40;52.40;;;;;;5011138;28;20467;-53
2022/07/15 06:49:05;;;;;;;7.00;1.60;;;15.50;54.00;;;;;;5012352;28;20471;-54
2022/07/15 06:51:32;;;;;;;2.97;1.40;;;15.60;62.90;;;;;;5008838;28;20494;-54
2022/07/15 06:53:58;;;;;;;5.40;1.30;;;15.60;72.60;;;;;;5010311;28;20484;-54
2022/07/15 06:56:25;;;;;;;2.73;1.37;;;15.70;72.20;;;;;;5010234;28;20471;-53
2022/07/15 06:58:51;;;;;;;11.73;1.83;;;15.70;68.30;;;;;;5010795;28;20499;-54
2022/07/15 07:01:18;;;;;;;3.13;1.40;;;15.70;74.00;;;;;;5004222;28;20969;-53
2022/07/15 07:03:46;;;;;;;3.53;1.27;;;15.80;75.40;;;;;;5009010;28;21006;-53
2022/07/15 07:06:12;;;;;;;6.07;1.43;;;15.70;78.70;;;;;;5007075;28;20515;-54
2022/07/15 07:08:39;;;;;;;6.83;2.10;;;15.80;76.00;;;;;;5013702;28;20545;-52
2022/07/15 07:11:06;;;;;;;2.27;1.07;;;15.80;83.20;;;;;;5008131;28;20466;-53
2022/07/15 07:13:32;;;;;;;6.83;1.50;;;15.80;88.10;;;;;;5010771;28;20501;-53
2022/07/15 07:15:59;;;;;;;8.20;1.50;;;15.80;89.50;;;;;;5010159;28;20487;-53
2022/07/15 07:18:26;;;;;;;3.87;1.30;;;15.90;90.20;;;;;;5009827;28;20460;-53
2022/07/15 07:20:54;;;;;;;5.50;1.30;;;15.90;97.30;;;;;;5005702;28;20471;-53
2022/07/15 07:23:23;;;;;;;6.00;1.50;;;15.90;99.90;;;;;;5004388;28;20912;-53
2022/07/15 07:25:49;;;;;;;3.17;1.53;;;16.00;99.90;;;;;;5007437;28;20997;-53
2022/07/15 07:28:16;;;;;;;5.10;1.63;;;16.10;99.90;;;;;;5010634;28;20488;-53
2022/07/15 07:30:43;;;;;;;8.27;1.30;;;16.10;99.90;;;;;;5003901;28;21029;-54
2022/07/15 07:33:09;;;;;;;3.17;0.90;;;16.30;99.90;;;;;;5008601;28;20879;-53
2022/07/15 07:35:36;;;;;;;2.77;1.03;;;16.30;99.90;;;;;;5009480;28;20487;-54
2022/07/15 07:38:04;;;;;;;1.00;0.90;;;16.30;99.90;;;;;;5009400;28;20475;-53
2022/07/15 07:40:30;;;;;;;3.90;1.13;;;16.40;99.90;;;;;;5006372;28;20507;-54
2022/07/15 07:42:57;;;;;;;2.47;1.07;;;16.30;99.90;;;;;;5011131;28;20510;-53
2022/07/15 07:45:24;;;;;;;3.90;1.30;;;16.40;99.90;;;;;;5007164;28;20533;-53
2022/07/15 07:47:52;;;;;;;3.10;1.10;;;16.50;99.90;;;;;;5011444;28;20831;-53
2022/07/15 07:50:18;;;;;;;5.90;1.47;;;16.50;99.90;;;;;;5005474;28;20968;-53
2022/07/15 07:52:45;;;;;;;2.70;1.23;;;16.50;99.90;;;;;;5004945;28;20499;-53
2022/07/15 07:55:14;;;;;;;12.70;1.47;;;16.50;99.90;;;;;;5011720;28;20478;-54
2022/07/15 07:57:48;;;;;;;5.37;1.33;;;16.40;99.90;;;;;;5011428;28;20462;-55
2022/07/15 08:00:15;;;;;;;2.80;1.77;;;16.40;99.90;;;;;;5008902;28;20817;-53
2022/07/15 08:02:42;;;;;;;6.10;1.40;;;16.50;99.90;;;;;;5009964;28;20474;-52
2022/07/15 08:05:09;;;;;;;3.17;1.30;;;16.50;99.90;;;;;;5009774;28;20527;-53
2022/07/15 08:07:36;;;;;;;11.63;1.30;;;16.50;99.90;;;;;;5008278;28;20463;-53
2022/07/15 08:10:03;;;;;;;5.57;1.63;;;16.50;99.90;;;;;;5010673;28;20463;-53
2022/07/15 08:12:31;;;;;;;8.73;1.60;;;16.50;99.90;;;;;;5004367;28;20468;-54
2022/07/15 08:14:57;;;;;;;3.00;1.33;;;16.60;99.90;;;;;;5010279;28;20519;-54
2022/07/15 08:17:24;;;;;;;6.30;1.40;;;16.60;99.90;;;;;;5005439;28;21004;-54
2022/07/15 08:19:51;;;;;;;3.70;1.53;;;16.70;99.90;;;;;;5008625;28;20468;-54
2022/07/15 08:22:17;;;;;;;4.73;1.20;;;16.80;99.90;;;;;;5010357;28;20503;-54
2022/07/15 08:24:44;;;;;;;7.90;1.80;;;16.80;99.90;;;;;;5011605;28;20487;-53
2022/07/15 08:27:10;;;;;;;11.00;1.60;;;16.90;99.90;;;;;;5011189;28;20498;-53
2022/07/15 08:29:39;;;;;;;2.73;1.17;;;16.90;99.90;;;;;;5005108;28;20468;-53
2022/07/15 08:32:06;;;;;;;5.67;1.17;;;16.90;99.90;;;;;;5005417;28;20470;-53
2022/07/15 08:34:32;;;;;;;2.97;0.90;;;16.90;99.90;;;;;;5008697;28;20524;-54
2022/07/15 08:36:59;;;;;;;6.00;1.50;;;16.80;99.90;;;;;;5010445;28;20695;-54
2022/07/15 08:39:26;;;;;;;6.43;1.13;;;16.80;99.90;;;;;;5012245;28;20480;-54
2022/07/15 08:41:53;;;;;;;2.00;1.10;;;16.90;99.90;;;;;;5007225;28;20492;-54
2022/07/15 08:44:20;;;;;;;2.70;1.20;;;17.00;99.90;;;;;;5009515;28;20537;-54
2022/07/15 08:46:48;;;;;;;4.23;1.20;;;17.10;99.90;;;;;;5004450;28;20517;-54
2022/07/15 08:49:18;;;;;;;2.77;1.07;;;17.10;99.90;;;;;;5012378;28;20513;-54
2022/07/15 08:51:47;;;;;;;4.17;1.10;;;17.10;99.90;;;;;;5009359;28;21122;-53
2022/07/15 08:54:15;;;;;;;1.43;1.00;;;17.00;99.90;;;;;;5009612;28;20479;-53
2022/07/15 08:56:45;;;;;;;2.00;0.93;;;17.00;99.90;;;;;;5012106;28;20483;-54
2022/07/15 08:59:12;;;;;;;2.00;0.93;;;16.90;99.90;;;;;;5008824;28;20471;-54
2022/07/15 09:01:43;;;;;;;5.13;0.97;;;17.00;99.90;;;;;;5007941;28;20483;-53
2022/07/15 09:04:11;;;;;;;3.93;1.17;;;16.90;99.90;;;;;;5009561;28;20993;-53
2022/07/15 09:06:39;;;;;;;3.60;1.20;;;16.90;99.90;;;;;;5010769;28;20483;-53
2022/07/15 09:09:38;;;;;;;5.00;1.50;;;16.90;99.90;;;;;;5006790;28;20491;-53
2022/07/15 09:12:06;;;;;;;1.57;0.87;;;16.90;99.90;;;;;;5007171;28;20471;-54
2022/07/15 09:14:35;;;;;;;2.37;1.37;;;17.00;99.90;;;;;;5008318;28;20524;-52
2022/07/15 09:17:24;;;;;;;2.70;1.23;;;17.00;99.90;;;;;;5008240;28;20514;-53
2022/07/15 09:19:59;;;;;;;2.67;1.30;;;17.10;99.90;;;;;;5007210;28;20837;-53
2022/07/15 09:22:28;;;;;;;2.53;0.83;;;17.20;99.90;;;;;;5007408;28;20476;-54
2022/07/15 09:25:05;;;;;;;4.10;1.30;;;17.30;99.90;;;;;;5009674;28;20578;-58
2022/07/15 09:27:33;;;;;;;2.50;1.23;;;17.50;99.90;;;;;;5007821;28;20467;-53
2022/07/15 09:36:03;;;;;;;2.70;0.93;;;17.60;99.90;;;;;;5009145;28;20437;-54
2022/07/15 09:38:40;;;;;;;9.63;0.93;;;17.60;99.90;;;;;;5006501;28;20476;-53
2022/07/15 09:41:07;;;;;;;3.90;2.37;;;17.60;99.90;;;;;;5003494;28;20460;-54
2022/07/15 09:43:43;;;;;;;5.73;0.90;;;17.70;99.90;;;;;;5007630;28;20565;-52
2022/07/15 09:46:10;;;;;;;3.90;0.93;;;18.00;99.90;;;;;;5006731;28;21054;-53
2022/07/15 09:48:40;;;;;;;8.20;1.20;;;18.30;1.40;;;;;;5011243;28;20549;-52
2022/07/15 09:51:09;;;;;;;2.07;0.80;;;18.50;99.90;;;;;;5010560;28;20545;-53
2022/07/15 09:53:36;;;;;;;5.43;1.00;;;18.50;99.90;;;;;;5014276;28;20488;-53
2022/07/15 09:56:04;;;;;;;8.00;1.13;;;18.40;99.90;;;;;;5014445;28;20479;-52
2022/07/15 09:58:32;;;;;;;7.50;2.00;;;18.20;99.90;;;;;;5009376;28;20534;-52
2022/07/15 10:00:59;;;;;;;2.03;0.87;;;18.10;99.90;;;;;;5010539;28;20491;-53
2022/07/15 10:03:26;;;;;;;5.37;1.50;;;18.10;99.90;;;;;;5000690;28;20527;-52
2022/07/15 10:05:54;;;;;;;5.30;1.20;;;18.20;99.90;;;;;;5006520;28;20515;-53
2022/07/15 10:08:25;;;;;;;4.27;1.00;;;18.20;99.90;;;;;;5007376;28;20463;-53
2022/07/15 10:10:52;;;;;;;3.97;1.13;;;18.10;99.90;;;;;;5013848;28;21047;-52
2022/07/15 10:13:35;;;;;;;1.47;1.03;;;18.10;99.90;;;;;;5010272;28;20519;-53
2022/07/15 10:16:22;;;;;;;2.67;1.10;;;18.00;99.90;;;;;;5010549;28;20487;-52
2022/07/15 10:19:00;;;;;;;1.67;1.00;;;18.00;99.90;;;;;;5007010;28;20972;-53
2022/07/15 10:21:36;;;;;;;9.53;1.00;;;17.90;99.90;;;;;;5013002;28;20490;-52
2022/07/15 10:24:36;;;;;;;4.30;0.93;;;17.90;99.90;;;;;;5011028;28;20482;-52
2022/07/15 10:27:20;;;;;;;10.60;1.53;;;18.10;99.90;;;;;;5005955;28;20518;-53
2022/07/15 10:29:47;;;;;;;5.80;1.10;;;18.40;99.90;;;;;;5012832;28;20495;-53
2022/07/15 10:32:14;;;;;;;9.67;1.77;;;18.70;99.90;;;;;;5009959;28;20467;-54
2022/07/15 10:34:42;;;;;;;7.10;1.40;;;18.70;99.90;;;;;;5010309;28;20915;-53
2022/07/15 10:37:11;;;;;;;1.37;1.10;;;18.60;99.90;;;;;;5012311;28;20506;-54
2022/07/15 10:39:55;;;;;;;5.97;0.83;;;18.50;99.90;;;;;;5014217;28;20491;-53
2022/07/15 10:42:22;;;;;;;1.80;1.00;;;18.40;99.90;;;;;;5005407;28;20830;-54
2022/07/15 10:45:02;;;;;;;5.00;1.10;;;18.70;99.90;;;;;;5012942;28;20676;-54
2022/07/15 10:47:29;;;;;;;3.37;0.70;;;18.90;99.90;;;;;;5009807;28;20803;-54
2022/07/15 10:49:56;;;;;;;2.17;1.17;;;18.90;99.90;;;;;;5014688;28;20854;-53
2022/07/15 10:52:25;;;;;;;3.00;0.70;;;19.00;99.90;;;;;;5009908;28;21269;-54
2022/07/15 10:55:03;;;;;;;5.20;1.13;;;19.00;99.90;;;;;;5014034;28;20498;-53
2022/07/15 10:57:53;;;;;;;4.20;1.00;;;18.90;99.90;;;;;;5012457;28;20462;-54
2022/07/15 11:00:33;;;;;;;5.67;1.50;;;18.70;99.90;;;;;;5000120;28;20567;-54
2022/07/15 11:03:03;;;;;;;3.63;1.20;;;18.80;99.90;;;;;;5009506;28;20459;-54
2022/07/15 11:05:31;;;;;;;4.60;1.00;;;18.80;99.90;;;;;;5011190;28;20460;-54
2022/07/15 11:07:57;;;;;;;4.20;1.07;;;18.80;99.90;;;;;;5007794;28;20996;-53
2022/07/15 11:10:26;;;;;;;3.23;1.00;;;18.70;99.90;;;;;;5010148;28;20628;-54
2022/07/15 11:12:59;;;;;;;1.60;1.00;;;18.70;99.90;;;;;;5010094;28;20511;-54
2022/07/15 11:15:26;;;;;;;14.33;1.10;;;18.60;99.90;;;;;;5009786;28;20471;-54
2022/07/15 11:17:56;;;;;;;3.27;1.20;;;18.60;99.90;;;;;;5009055;28;20517;-54
2022/07/15 11:20:26;;;;;;;4.53;1.17;;;18.60;99.90;;;;;;5013665;28;20518;-54
2022/07/15 11:22:55;;;;;;;2.90;1.00;;;18.60;99.90;;;;;;5010234;28;20499;-54
2022/07/15 11:25:23;;;;;;;1.43;1.00;;;18.60;99.90;;;;;;5011009;28;20490;-54
2022/07/15 11:28:00;;;;;;;2.10;0.97;;;18.60;99.90;;;;;;5012344;28;20492;-54
2022/07/15 11:30:27;;;;;;;4.30;1.30;;;18.60;99.90;;;;;;5016391;28;20446;-53
2022/07/15 11:32:59;;;;;;;3.70;0.93;;;18.80;99.90;;;;;;5011504;28;20992;-56
2022/07/15 11:35:27;;;;;;;8.63;1.37;;;19.00;99.90;;;;;;5010548;28;20468;-54
2022/07/15 11:38:03;;;;;;;6.90;1.63;;;19.20;99.90;;;;;;5011706;28;20870;-55
2022/07/15 11:46:04;;;;;;;4.00;1.67;;;19.60;99.90;;;;;;5012158;28;20960;-54
2022/07/15 11:48:35;;;;;;;1.77;1.00;;;19.40;99.90;;;;;;5011384;28;20471;-55
2022/07/15 11:51:02;;;;;;;2.90;1.20;;;19.20;99.90;;;;;;5009793;28;20505;-53
2022/07/15 11:53:35;;;;;;;1.10;0.80;;;19.00;99.90;;;;;;5008635;28;20514;-54
2022/07/15 11:56:02;;;;;;;2.80;0.80;;;18.80;99.90;;;;;;5003936;28;20550;-53
2022/07/15 11:58:32;;;;;;;3.90;1.30;;;18.70;99.90;;;;;;5010741;28;20970;-53
2022/07/15 12:00:59;;;;;;;2.80;0.90;;;18.60;99.90;;;;;;5011256;28;20483;-53
2022/07/15 12:03:32;;;;;;;5.10;1.10;;;18.50;99.90;;;;;;5015963;28;20518;-53
2022/07/15 12:06:07;;;;;;;5.03;1.00;;;18.50;99.90;;;;;;5004107;28;20484;-53
2022/07/15 12:08:35;;;;;;;3.80;1.30;;;18.50;99.90;;;;;;5007933;28;20549;-54
2022/07/15 12:11:02;;;;;;;6.77;0.97;;;18.40;99.90;;;;;;5007680;28;20981;-54
2022/07/15 12:13:42;;;;;;;2.30;0.80;;;18.40;99.90;;;;;;5010586;28;20519;-53
2022/07/15 12:16:09;;;;;;;9.73;1.50;;;18.40;99.90;;;;;;5007355;28;20496;-53
2022/07/15 12:18:36;;;;;;;6.03;1.17;;;18.40;99.90;;;;;;5010569;28;20506;-53
2022/07/15 12:21:03;;;;;;;4.23;1.20;;;18.40;99.90;;;;;;5010227;28;20490;-54
2022/07/15 12:23:29;;;;;;;4.50;0.93;;;18.40;99.90;;;;;;5003965;28;20516;-53
2022/07/15 12:26:03;;;;;;;8.13;1.30;;;18.50;99.90;;;;;;5010550;28;20464;-53
2022/07/15 12:28:30;;;;;;;4.93;1.20;;;18.50;99.90;;;;;;5010262;28;20825;-54
2022/07/15 12:30:59;;;;;;;8.03;0.83;;;18.70;99.90;;;;;;5009955;28;20546;-53
2022/07/15 12:33:26;;;;;;;4.30;1.00;;;18.80;99.90;;;;;;5011247;28;20544;-55
2022/07/15 12:36:14;;;;;;;6.17;1.00;;;19.20;99.90;;;;;;5009298;28;20522;-54
2022/07/15 12:38:41;;;;;;;4.63;0.97;;;19.40;99.90;;;;;;5007545;28;20558;-54
2022/07/15 12:41:09;;;;;;;1.60;0.97;;;19.40;99.90;;;;;;5009282;28;20456;-54
2022/07/15 12:43:50;;;;;;;3.60;1.17;;;19.40;99.90;;;;;;5008547;28;20561;-54
2022/07/15 12:46:19;;;;;;;3.23;1.13;;;19.30;99.90;;;;;;5004151;28;20917;-54
2022/07/15 12:48:47;;;;;;;9.83;0.70;;;19.30;99.90;;;;;;5010015;28;20467;-53
2022/07/15 12:51:15;;;;;;;1.93;1.17;;;19.30;99.90;;;;;;5009402;28;20460;-54
2022/07/15 12:53:41;;;;;;;3.10;1.07;;;19.20;99.90;;;;;;5008461;28;20487;-54
2022/07/15 12:56:09;;;;;;;1.13;0.73;;;19.10;99.90;;;;;;5008731;28;20456;-54
2022/07/15 12:58:37;;;;;;;4.33;0.83;;;19.00;99.90;;;;;;5008761;28;20459;-53
2022/07/15 13:01:08;;;;;;;1.07;0.60;;;19.00;99.90;;;;;;5002339;28;20470;-53
2022/07/15 13:03:36;;;;;;;2.30;0.73;;;19.00;99.90;;;;;;5010583;28;20549;-54
2022/07/15 13:06:04;;;;;;;1.83;1.13;;;19.10;99.90;;;;;;5009116;28;20467;-54